sensor_id;sensor_type;location;lat;lon;timestamp;P1;durP1;ratioP1;P2;durP2;ratioP2
7171;SDS011;3627;46.544;14.944;2022-10-16T00:00:25;21.15;;;11.75;;
7171;SDS011;3627;46.544;14.944;2022-10-16T00:02:51;25.67;;;12.65;;
7171;SDS011;3627;46.544;14.944;2022-10-16T00:05:17;24.95;;;13.05;;
7171;SDS011;3627;46.544;14.944;2022-10-16T00:07:44;25.08;;;12.55;;
7171;SDS011;3627;46.544;14.944;2022-10-16T00:10:10;19.92;;;12.52;;
7171;SDS011;3627;46.544;14.944;2022-10-16T00:12:37;19.52;;;12.68;;
7171;SDS011;3627;46.544;14.944;2022-10-16T00:15:03;23.17;;;12.68;;
7171;SDS011;3627;46.544;14.944;2022-10-16T00:17:32;18.67;;;10.20;;
7171;SDS011;3627;46.544;14.944;2022-10-16T00:19:58;24.70;;;12.00;;
7171;SDS011;3627;46.544;14.944;2022-10-16T00:22:25;14.80;;;9.80;;
7171;SDS011;3627;46.544;14.944;2022-10-16T00:24:52;21.38;;;11.40;;
7171;SDS011;3627;46.544;14.944;2022-10-16T00:27:18;19.60;;;11.30;;
7171;SDS011;3627;46.544;14.944;2022-10-16T00:29:44;18.80;;;11.38;;
7171;SDS011;3627;46.544;14.944;2022-10-16T00:32:11;17.25;;;10.35;;
7171;SDS011;3627;46.544;14.944;2022-10-16T00:34:39;20.95;;;11.32;;
7171;SDS011;3627;46.544;14.944;2022-10-16T00:37:05;16.05;;;9.93;;
7171;SDS011;3627;46.544;14.944;2022-10-16T00:39:31;19.02;;;9.50;;
7171;SDS011;3627;46.544;14.944;2022-10-16T00:41:58;18.63;;;10.43;;
7171;SDS011;3627;46.544;14.944;2022-10-16T00:44:44;21.27;;;10.30;;
7171;SDS011;3627;46.544;14.944;2022-10-16T00:47:11;21.48;;;10.50;;
7171;SDS011;3627;46.544;14.944;2022-10-16T00:49:40;21.63;;;10.60;;
7171;SDS011;3627;46.544;14.944;2022-10-16T00:52:07;17.35;;;9.63;;
7171;SDS011;3627;46.544;14.944;2022-10-16T00:54:33;20.20;;;11.00;;
7171;SDS011;3627;46.544;14.944;2022-10-16T00:57:01;19.70;;;10.20;;
7171;SDS011;3627;46.544;14.944;2022-10-16T00:59:28;18.70;;;10.57;;
7171;SDS011;3627;46.544;14.944;2022-10-16T01:01:56;20.67;;;9.50;;
7171;SDS011;3627;46.544;14.944;2022-10-16T01:04:23;17.15;;;10.27;;
7171;SDS011;3627;46.544;14.944;2022-10-16T01:06:53;19.08;;;8.82;;
7171;SDS011;3627;46.544;14.944;2022-10-16T01:09:23;15.88;;;9.98;;
7171;SDS011;3627;46.544;14.944;2022-10-16T01:11:54;18.55;;;10.70;;
7171;SDS011;3627;46.544;14.944;2022-10-16T01:14:22;19.08;;;10.50;;
7171;SDS011;3627;46.544;14.944;2022-10-16T01:16:52;20.60;;;11.43;;
7171;SDS011;3627;46.544;14.944;2022-10-16T01:19:20;20.88;;;10.80;;
7171;SDS011;3627;46.544;14.944;2022-10-16T01:21:53;20.60;;;10.40;;
7171;SDS011;3627;46.544;14.944;2022-10-16T01:24:26;20.05;;;9.73;;
7171;SDS011;3627;46.544;14.944;2022-10-16T01:27:06;17.48;;;10.38;;
7171;SDS011;3627;46.544;14.944;2022-10-16T01:29:34;19.80;;;10.82;;
7171;SDS011;3627;46.544;14.944;2022-10-16T01:32:05;17.58;;;9.43;;
7171;SDS011;3627;46.544;14.944;2022-10-16T01:34:35;19.48;;;10.05;;
7171;SDS011;3627;46.544;14.944;2022-10-16T01:37:05;18.85;;;10.27;;
7171;SDS011;3627;46.544;14.944;2022-10-16T01:39:34;17.25;;;9.10;;
7171;SDS011;3627;46.544;14.944;2022-10-16T01:42:03;19.38;;;10.15;;
7171;SDS011;3627;46.544;14.944;2022-10-16T01:44:32;17.48;;;9.93;;
7171;SDS011;3627;46.544;14.944;2022-10-16T01:47:01;16.35;;;9.60;;
7171;SDS011;3627;46.544;14.944;2022-10-16T01:49:30;14.48;;;10.10;;
7171;SDS011;3627;46.544;14.944;2022-10-16T01:51:58;16.85;;;8.88;;
7171;SDS011;3627;46.544;14.944;2022-10-16T01:54:25;19.60;;;10.90;;
7171;SDS011;3627;46.544;14.944;2022-10-16T01:56:54;14.05;;;9.70;;
7171;SDS011;3627;46.544;14.944;2022-10-16T01:59:21;16.00;;;9.13;;
7171;SDS011;3627;46.544;14.944;2022-10-16T02:01:51;19.13;;;10.40;;
7171;SDS011;3627;46.544;14.944;2022-10-16T02:04:20;20.20;;;9.80;;
7171;SDS011;3627;46.544;14.944;2022-10-16T02:06:48;19.15;;;9.93;;
7171;SDS011;3627;46.544;14.944;2022-10-16T02:09:14;17.70;;;10.52;;
7171;SDS011;3627;46.544;14.944;2022-10-16T02:11:42;18.13;;;9.63;;
7171;SDS011;3627;46.544;14.944;2022-10-16T02:14:08;16.48;;;9.15;;
7171;SDS011;3627;46.544;14.944;2022-10-16T02:16:35;18.70;;;9.98;;
7171;SDS011;3627;46.544;14.944;2022-10-16T02:19:03;17.02;;;9.00;;
7171;SDS011;3627;46.544;14.944;2022-10-16T02:21:31;18.15;;;10.38;;
7171;SDS011;3627;46.544;14.944;2022-10-16T02:24:01;18.42;;;10.50;;
7171;SDS011;3627;46.544;14.944;2022-10-16T02:26:30;17.27;;;9.90;;
7171;SDS011;3627;46.544;14.944;2022-10-16T02:29:00;16.98;;;10.50;;
7171;SDS011;3627;46.544;14.944;2022-10-16T02:31:30;15.05;;;9.75;;
7171;SDS011;3627;46.544;14.944;2022-10-16T02:33:59;17.80;;;9.68;;
7171;SDS011;3627;46.544;14.944;2022-10-16T02:36:27;15.95;;;10.38;;
7171;SDS011;3627;46.544;14.944;2022-10-16T02:38:54;19.88;;;10.80;;
7171;SDS011;3627;46.544;14.944;2022-10-16T02:41:20;17.05;;;10.13;;
7171;SDS011;3627;46.544;14.944;2022-10-16T02:43:47;18.20;;;10.93;;
7171;SDS011;3627;46.544;14.944;2022-10-16T02:46:14;19.35;;;9.70;;
7171;SDS011;3627;46.544;14.944;2022-10-16T02:48:40;20.50;;;10.57;;
7171;SDS011;3627;46.544;14.944;2022-10-16T02:51:07;15.65;;;9.98;;
7171;SDS011;3627;46.544;14.944;2022-10-16T02:53:35;14.88;;;9.02;;
7171;SDS011;3627;46.544;14.944;2022-10-16T02:56:01;16.23;;;10.05;;
7171;SDS011;3627;46.544;14.944;2022-10-16T02:58:27;17.73;;;10.77;;
7171;SDS011;3627;46.544;14.944;2022-10-16T03:00:54;18.55;;;10.35;;
7171;SDS011;3627;46.544;14.944;2022-10-16T03:03:20;13.13;;;8.02;;
7171;SDS011;3627;46.544;14.944;2022-10-16T03:05:47;17.65;;;9.80;;
7171;SDS011;3627;46.544;14.944;2022-10-16T03:08:13;18.55;;;11.05;;
7171;SDS011;3627;46.544;14.944;2022-10-16T03:10:42;33.47;;;20.15;;
7171;SDS011;3627;46.544;14.944;2022-10-16T03:13:08;19.80;;;11.27;;
7171;SDS011;3627;46.544;14.944;2022-10-16T03:15:35;17.23;;;10.50;;
7171;SDS011;3627;46.544;14.944;2022-10-16T03:18:01;20.15;;;11.77;;
7171;SDS011;3627;46.544;14.944;2022-10-16T03:20:27;18.65;;;10.75;;
7171;SDS011;3627;46.544;14.944;2022-10-16T03:22:54;22.40;;;10.27;;
7171;SDS011;3627;46.544;14.944;2022-10-16T03:25:20;18.73;;;10.73;;
7171;SDS011;3627;46.544;14.944;2022-10-16T03:27:48;16.30;;;10.13;;
7171;SDS011;3627;46.544;14.944;2022-10-16T03:30:14;17.75;;;10.05;;
7171;SDS011;3627;46.544;14.944;2022-10-16T03:32:41;18.38;;;10.00;;
7171;SDS011;3627;46.544;14.944;2022-10-16T03:35:08;17.88;;;9.88;;
7171;SDS011;3627;46.544;14.944;2022-10-16T03:37:34;18.55;;;10.18;;
7171;SDS011;3627;46.544;14.944;2022-10-16T03:40:01;18.77;;;10.00;;
7171;SDS011;3627;46.544;14.944;2022-10-16T03:42:27;20.58;;;10.18;;
7171;SDS011;3627;46.544;14.944;2022-10-16T03:44:55;17.08;;;10.57;;
7171;SDS011;3627;46.544;14.944;2022-10-16T03:47:21;18.85;;;10.23;;
7171;SDS011;3627;46.544;14.944;2022-10-16T03:49:48;21.10;;;10.50;;
7171;SDS011;3627;46.544;14.944;2022-10-16T03:52:15;18.42;;;10.15;;
7171;SDS011;3627;46.544;14.944;2022-10-16T03:54:41;16.52;;;9.60;;
7171;SDS011;3627;46.544;14.944;2022-10-16T03:57:08;16.83;;;9.95;;
7171;SDS011;3627;46.544;14.944;2022-10-16T03:59:34;19.10;;;10.30;;
7171;SDS011;3627;46.544;14.944;2022-10-16T04:02:02;18.90;;;9.57;;
7171;SDS011;3627;46.544;14.944;2022-10-16T04:04:28;16.70;;;8.70;;
7171;SDS011;3627;46.544;14.944;2022-10-16T04:06:54;21.58;;;10.75;;
7171;SDS011;3627;46.544;14.944;2022-10-16T04:09:21;18.63;;;9.90;;
7171;SDS011;3627;46.544;14.944;2022-10-16T04:11:47;20.15;;;11.07;;
7171;SDS011;3627;46.544;14.944;2022-10-16T04:14:14;18.80;;;11.07;;
7171;SDS011;3627;46.544;14.944;2022-10-16T04:16:40;22.20;;;10.57;;
7171;SDS011;3627;46.544;14.944;2022-10-16T04:19:08;18.15;;;10.40;;
7171;SDS011;3627;46.544;14.944;2022-10-16T04:21:35;20.60;;;11.02;;
7171;SDS011;3627;46.544;14.944;2022-10-16T04:24:01;17.90;;;9.93;;
7171;SDS011;3627;46.544;14.944;2022-10-16T04:26:27;17.75;;;10.68;;
7171;SDS011;3627;46.544;14.944;2022-10-16T04:28:54;15.90;;;9.05;;
7171;SDS011;3627;46.544;14.944;2022-10-16T04:31:20;19.02;;;10.98;;
7171;SDS011;3627;46.544;14.944;2022-10-16T04:33:47;19.95;;;11.10;;
7171;SDS011;3627;46.544;14.944;2022-10-16T04:36:15;19.67;;;10.88;;
7171;SDS011;3627;46.544;14.944;2022-10-16T04:38:41;22.30;;;10.80;;
7171;SDS011;3627;46.544;14.944;2022-10-16T04:41:08;19.35;;;10.15;;
7171;SDS011;3627;46.544;14.944;2022-10-16T04:43:34;16.83;;;10.05;;
7171;SDS011;3627;46.544;14.944;2022-10-16T04:46:01;20.40;;;9.57;;
7171;SDS011;3627;46.544;14.944;2022-10-16T04:48:29;17.58;;;10.13;;
7171;SDS011;3627;46.544;14.944;2022-10-16T04:50:56;18.90;;;10.32;;
7171;SDS011;3627;46.544;14.944;2022-10-16T04:53:23;17.52;;;10.15;;
7171;SDS011;3627;46.544;14.944;2022-10-16T04:55:50;20.48;;;11.88;;
7171;SDS011;3627;46.544;14.944;2022-10-16T04:58:16;19.63;;;9.82;;
7171;SDS011;3627;46.544;14.944;2022-10-16T05:00:43;18.05;;;10.82;;
7171;SDS011;3627;46.544;14.944;2022-10-16T05:03:11;19.98;;;10.82;;
7171;SDS011;3627;46.544;14.944;2022-10-16T05:05:41;19.95;;;10.13;;
7171;SDS011;3627;46.544;14.944;2022-10-16T05:08:08;20.30;;;10.10;;
7171;SDS011;3627;46.544;14.944;2022-10-16T05:10:35;15.60;;;9.27;;
7171;SDS011;3627;46.544;14.944;2022-10-16T05:13:02;17.55;;;10.20;;
7171;SDS011;3627;46.544;14.944;2022-10-16T05:15:28;14.48;;;9.13;;
7171;SDS011;3627;46.544;14.944;2022-10-16T05:17:55;20.85;;;11.90;;
7171;SDS011;3627;46.544;14.944;2022-10-16T05:20:22;16.27;;;9.85;;
7171;SDS011;3627;46.544;14.944;2022-10-16T05:22:48;17.05;;;10.38;;
7171;SDS011;3627;46.544;14.944;2022-10-16T05:25:15;16.75;;;9.77;;
7171;SDS011;3627;46.544;14.944;2022-10-16T05:27:43;17.42;;;9.93;;
7171;SDS011;3627;46.544;14.944;2022-10-16T05:30:09;17.63;;;10.80;;
7171;SDS011;3627;46.544;14.944;2022-10-16T05:32:36;21.58;;;9.95;;
7171;SDS011;3627;46.544;14.944;2022-10-16T05:35:02;18.83;;;11.02;;
7171;SDS011;3627;46.544;14.944;2022-10-16T05:37:29;16.25;;;10.45;;
7171;SDS011;3627;46.544;14.944;2022-10-16T05:39:55;16.13;;;10.40;;
7171;SDS011;3627;46.544;14.944;2022-10-16T05:42:21;22.70;;;11.18;;
7171;SDS011;3627;46.544;14.944;2022-10-16T05:44:49;22.92;;;12.00;;
7171;SDS011;3627;46.544;14.944;2022-10-16T05:47:16;20.73;;;11.88;;
7171;SDS011;3627;46.544;14.944;2022-10-16T05:49:42;22.88;;;12.90;;
7171;SDS011;3627;46.544;14.944;2022-10-16T05:52:08;18.02;;;11.18;;
7171;SDS011;3627;46.544;14.944;2022-10-16T05:54:35;22.38;;;11.27;;
7171;SDS011;3627;46.544;14.944;2022-10-16T05:57:01;23.55;;;11.27;;
7171;SDS011;3627;46.544;14.944;2022-10-16T05:59:30;19.20;;;11.15;;
7171;SDS011;3627;46.544;14.944;2022-10-16T06:01:58;23.48;;;12.05;;
7171;SDS011;3627;46.544;14.944;2022-10-16T06:04:24;27.48;;;12.52;;
7171;SDS011;3627;46.544;14.944;2022-10-16T06:06:51;20.83;;;11.80;;
7171;SDS011;3627;46.544;14.944;2022-10-16T06:09:17;21.90;;;11.23;;
7171;SDS011;3627;46.544;14.944;2022-10-16T06:11:43;23.88;;;11.90;;
7171;SDS011;3627;46.544;14.944;2022-10-16T06:14:10;16.40;;;11.13;;
7171;SDS011;3627;46.544;14.944;2022-10-16T06:16:37;19.17;;;10.38;;
7171;SDS011;3627;46.544;14.944;2022-10-16T06:19:05;18.98;;;10.68;;
7171;SDS011;3627;46.544;14.944;2022-10-16T06:21:33;17.40;;;10.63;;
7171;SDS011;3627;46.544;14.944;2022-10-16T06:23:59;18.75;;;9.90;;
7171;SDS011;3627;46.544;14.944;2022-10-16T06:26:26;15.95;;;9.43;;
7171;SDS011;3627;46.544;14.944;2022-10-16T06:28:53;15.50;;;10.07;;
7171;SDS011;3627;46.544;14.944;2022-10-16T06:31:20;17.05;;;9.80;;
7171;SDS011;3627;46.544;14.944;2022-10-16T06:33:49;16.77;;;9.35;;
7171;SDS011;3627;46.544;14.944;2022-10-16T06:36:17;13.93;;;8.55;;
7171;SDS011;3627;46.544;14.944;2022-10-16T06:38:44;14.90;;;9.13;;
7171;SDS011;3627;46.544;14.944;2022-10-16T06:41:11;12.48;;;8.50;;
7171;SDS011;3627;46.544;14.944;2022-10-16T06:43:37;13.18;;;8.15;;
7171;SDS011;3627;46.544;14.944;2022-10-16T06:46:04;12.95;;;7.82;;
7171;SDS011;3627;46.544;14.944;2022-10-16T06:48:32;11.65;;;7.25;;
7171;SDS011;3627;46.544;14.944;2022-10-16T06:51:00;13.55;;;7.20;;
7171;SDS011;3627;46.544;14.944;2022-10-16T06:53:31;11.70;;;6.75;;
7171;SDS011;3627;46.544;14.944;2022-10-16T06:55:58;10.82;;;7.22;;
7171;SDS011;3627;46.544;14.944;2022-10-16T06:58:32;10.55;;;6.90;;
7171;SDS011;3627;46.544;14.944;2022-10-16T07:00:58;10.20;;;6.22;;
7171;SDS011;3627;46.544;14.944;2022-10-16T07:03:24;11.43;;;7.82;;
7171;SDS011;3627;46.544;14.944;2022-10-16T07:05:51;11.15;;;6.43;;
7171;SDS011;3627;46.544;14.944;2022-10-16T07:08:18;11.30;;;6.88;;
7171;SDS011;3627;46.544;14.944;2022-10-16T07:10:45;9.05;;;6.82;;
7171;SDS011;3627;46.544;14.944;2022-10-16T07:13:12;9.32;;;6.57;;
7171;SDS011;3627;46.544;14.944;2022-10-16T07:15:39;8.63;;;6.13;;
7171;SDS011;3627;46.544;14.944;2022-10-16T07:18:06;11.82;;;7.20;;
7171;SDS011;3627;46.544;14.944;2022-10-16T07:20:32;9.73;;;6.68;;
7171;SDS011;3627;46.544;14.944;2022-10-16T07:22:59;11.05;;;6.97;;
7171;SDS011;3627;46.544;14.944;2022-10-16T07:25:25;10.43;;;6.22;;
7171;SDS011;3627;46.544;14.944;2022-10-16T07:27:53;9.48;;;6.20;;
7171;SDS011;3627;46.544;14.944;2022-10-16T07:30:22;9.65;;;6.80;;
7171;SDS011;3627;46.544;14.944;2022-10-16T07:32:48;9.65;;;6.43;;
7171;SDS011;3627;46.544;14.944;2022-10-16T07:35:14;9.35;;;6.03;;
7171;SDS011;3627;46.544;14.944;2022-10-16T07:37:43;8.85;;;5.93;;
7171;SDS011;3627;46.544;14.944;2022-10-16T07:40:10;7.15;;;5.55;;
7171;SDS011;3627;46.544;14.944;2022-10-16T07:42:36;7.82;;;5.97;;
7171;SDS011;3627;46.544;14.944;2022-10-16T07:45:05;9.15;;;6.15;;
7171;SDS011;3627;46.544;14.944;2022-10-16T07:47:31;9.00;;;5.80;;
7171;SDS011;3627;46.544;14.944;2022-10-16T07:49:57;8.32;;;6.10;;
7171;SDS011;3627;46.544;14.944;2022-10-16T07:52:24;8.45;;;6.57;;
7171;SDS011;3627;46.544;14.944;2022-10-16T07:54:50;9.13;;;6.72;;
7171;SDS011;3627;46.544;14.944;2022-10-16T07:57:17;10.77;;;6.85;;
7171;SDS011;3627;46.544;14.944;2022-10-16T07:59:44;8.98;;;6.07;;
7171;SDS011;3627;46.544;14.944;2022-10-16T08:02:12;11.20;;;7.45;;
7171;SDS011;3627;46.544;14.944;2022-10-16T08:04:39;8.60;;;5.95;;
7171;SDS011;3627;46.544;14.944;2022-10-16T08:07:06;9.35;;;6.90;;
7171;SDS011;3627;46.544;14.944;2022-10-16T08:09:32;10.00;;;6.95;;
7171;SDS011;3627;46.544;14.944;2022-10-16T08:11:59;9.85;;;6.57;;
7171;SDS011;3627;46.544;14.944;2022-10-16T08:14:25;9.82;;;6.50;;
7171;SDS011;3627;46.544;14.944;2022-10-16T08:16:51;11.05;;;6.53;;
7171;SDS011;3627;46.544;14.944;2022-10-16T08:19:19;9.23;;;6.80;;
7171;SDS011;3627;46.544;14.944;2022-10-16T08:21:46;11.00;;;7.05;;
7171;SDS011;3627;46.544;14.944;2022-10-16T08:24:13;7.95;;;6.53;;
7171;SDS011;3627;46.544;14.944;2022-10-16T08:26:39;11.05;;;7.18;;
7171;SDS011;3627;46.544;14.944;2022-10-16T08:29:06;9.98;;;7.72;;
7171;SDS011;3627;46.544;14.944;2022-10-16T08:31:32;10.93;;;7.63;;
7171;SDS011;3627;46.544;14.944;2022-10-16T08:33:58;12.18;;;8.00;;
7171;SDS011;3627;46.544;14.944;2022-10-16T08:36:26;12.75;;;7.93;;
7171;SDS011;3627;46.544;14.944;2022-10-16T08:38:53;11.50;;;7.57;;
7171;SDS011;3627;46.544;14.944;2022-10-16T08:41:27;9.52;;;6.80;;
7171;SDS011;3627;46.544;14.944;2022-10-16T08:44:03;9.98;;;6.72;;
7171;SDS011;3627;46.544;14.944;2022-10-16T08:46:37;8.80;;;6.20;;
7171;SDS011;3627;46.544;14.944;2022-10-16T08:49:05;8.85;;;6.30;;
7171;SDS011;3627;46.544;14.944;2022-10-16T08:51:36;9.57;;;6.78;;
7171;SDS011;3627;46.544;14.944;2022-10-16T08:54:03;9.88;;;6.88;;
7171;SDS011;3627;46.544;14.944;2022-10-16T08:56:30;8.90;;;6.68;;
7171;SDS011;3627;46.544;14.944;2022-10-16T08:58:58;9.35;;;6.90;;
7171;SDS011;3627;46.544;14.944;2022-10-16T09:01:25;10.30;;;7.00;;
7171;SDS011;3627;46.544;14.944;2022-10-16T09:04:03;9.90;;;7.03;;
7171;SDS011;3627;46.544;14.944;2022-10-16T09:06:37;10.75;;;7.68;;
7171;SDS011;3627;46.544;14.944;2022-10-16T09:09:17;9.68;;;6.97;;
7171;SDS011;3627;46.544;14.944;2022-10-16T09:11:46;9.05;;;6.68;;
7171;SDS011;3627;46.544;14.944;2022-10-16T09:14:23;8.85;;;6.85;;
7171;SDS011;3627;46.544;14.944;2022-10-16T09:16:53;9.25;;;6.65;;
7171;SDS011;3627;46.544;14.944;2022-10-16T09:19:23;9.32;;;7.00;;
7171;SDS011;3627;46.544;14.944;2022-10-16T09:21:52;10.75;;;7.32;;
7171;SDS011;3627;46.544;14.944;2022-10-16T09:24:19;9.82;;;7.20;;
7171;SDS011;3627;46.544;14.944;2022-10-16T09:26:45;9.52;;;6.82;;
7171;SDS011;3627;46.544;14.944;2022-10-16T09:29:12;9.75;;;7.00;;
7171;SDS011;3627;46.544;14.944;2022-10-16T09:31:39;9.02;;;7.03;;
7171;SDS011;3627;46.544;14.944;2022-10-16T09:34:08;11.48;;;6.60;;
7171;SDS011;3627;46.544;14.944;2022-10-16T09:36:44;9.00;;;7.25;;
7171;SDS011;3627;46.544;14.944;2022-10-16T09:39:12;9.10;;;6.78;;
7171;SDS011;3627;46.544;14.944;2022-10-16T09:41:39;8.15;;;6.50;;
7171;SDS011;3627;46.544;14.944;2022-10-16T09:44:15;9.05;;;6.28;;
7171;SDS011;3627;46.544;14.944;2022-10-16T09:46:44;8.82;;;6.35;;
7171;SDS011;3627;46.544;14.944;2022-10-16T09:49:18;9.25;;;6.55;;
7171;SDS011;3627;46.544;14.944;2022-10-16T09:51:46;9.10;;;6.55;;
7171;SDS011;3627;46.544;14.944;2022-10-16T09:54:15;9.07;;;6.38;;
7171;SDS011;3627;46.544;14.944;2022-10-16T09:56:42;8.85;;;6.85;;
7171;SDS011;3627;46.544;14.944;2022-10-16T09:59:11;9.68;;;7.43;;
7171;SDS011;3627;46.544;14.944;2022-10-16T10:01:38;10.73;;;7.32;;
7171;SDS011;3627;46.544;14.944;2022-10-16T10:04:05;10.73;;;7.70;;
7171;SDS011;3627;46.544;14.944;2022-10-16T10:06:33;12.27;;;8.55;;
7171;SDS011;3627;46.544;14.944;2022-10-16T10:09:04;11.45;;;8.57;;
7171;SDS011;3627;46.544;14.944;2022-10-16T10:11:39;13.27;;;8.65;;
7171;SDS011;3627;46.544;14.944;2022-10-16T10:14:06;8.52;;;6.78;;
7171;SDS011;3627;46.544;14.944;2022-10-16T10:16:38;12.13;;;7.78;;
7171;SDS011;3627;46.544;14.944;2022-10-16T10:19:09;11.95;;;8.27;;
7171;SDS011;3627;46.544;14.944;2022-10-16T10:21:39;12.50;;;7.38;;
7171;SDS011;3627;46.544;14.944;2022-10-16T10:24:08;11.05;;;7.85;;
7171;SDS011;3627;46.544;14.944;2022-10-16T10:26:35;11.57;;;7.45;;
7171;SDS011;3627;46.544;14.944;2022-10-16T10:29:04;11.88;;;7.47;;
7171;SDS011;3627;46.544;14.944;2022-10-16T10:31:33;9.73;;;7.15;;
7171;SDS011;3627;46.544;14.944;2022-10-16T10:34:03;10.05;;;7.55;;
7171;SDS011;3627;46.544;14.944;2022-10-16T10:36:35;12.43;;;7.68;;
7171;SDS011;3627;46.544;14.944;2022-10-16T10:39:04;9.82;;;7.38;;
7171;SDS011;3627;46.544;14.944;2022-10-16T10:41:39;12.75;;;7.45;;
7171;SDS011;3627;46.544;14.944;2022-10-16T10:44:11;12.60;;;7.78;;
7171;SDS011;3627;46.544;14.944;2022-10-16T10:46:42;12.88;;;7.80;;
7171;SDS011;3627;46.544;14.944;2022-10-16T10:49:15;11.32;;;7.63;;
7171;SDS011;3627;46.544;14.944;2022-10-16T10:51:44;12.48;;;7.47;;
7171;SDS011;3627;46.544;14.944;2022-10-16T10:54:17;12.27;;;7.88;;
7171;SDS011;3627;46.544;14.944;2022-10-16T10:56:47;12.48;;;8.10;;
7171;SDS011;3627;46.544;14.944;2022-10-16T10:59:30;11.98;;;7.80;;
7171;SDS011;3627;46.544;14.944;2022-10-16T11:01:59;13.70;;;7.45;;
7171;SDS011;3627;46.544;14.944;2022-10-16T11:04:40;11.45;;;7.38;;
7171;SDS011;3627;46.544;14.944;2022-10-16T11:07:10;11.10;;;7.65;;
7171;SDS011;3627;46.544;14.944;2022-10-16T11:09:41;12.10;;;7.72;;
7171;SDS011;3627;46.544;14.944;2022-10-16T11:12:09;11.95;;;6.78;;
7171;SDS011;3627;46.544;14.944;2022-10-16T11:14:40;11.52;;;6.85;;
7171;SDS011;3627;46.544;14.944;2022-10-16T11:17:09;14.50;;;7.70;;
7171;SDS011;3627;46.544;14.944;2022-10-16T11:19:37;9.63;;;6.55;;
7171;SDS011;3627;46.544;14.944;2022-10-16T11:22:08;12.52;;;8.32;;
7171;SDS011;3627;46.544;14.944;2022-10-16T11:24:37;10.30;;;6.78;;
7171;SDS011;3627;46.544;14.944;2022-10-16T11:27:07;12.63;;;7.10;;
7171;SDS011;3627;46.544;14.944;2022-10-16T11:29:34;12.43;;;7.38;;
7171;SDS011;3627;46.544;14.944;2022-10-16T11:32:04;13.68;;;6.53;;
7171;SDS011;3627;46.544;14.944;2022-10-16T11:34:33;11.13;;;6.78;;
7171;SDS011;3627;46.544;14.944;2022-10-16T11:37:01;9.70;;;6.13;;
7171;SDS011;3627;46.544;14.944;2022-10-16T11:39:29;11.57;;;7.03;;
7171;SDS011;3627;46.544;14.944;2022-10-16T11:41:58;11.23;;;7.00;;
7171;SDS011;3627;46.544;14.944;2022-10-16T11:44:31;9.45;;;6.38;;
7171;SDS011;3627;46.544;14.944;2022-10-16T11:47:01;9.55;;;6.43;;
7171;SDS011;3627;46.544;14.944;2022-10-16T11:49:32;9.70;;;6.30;;
7171;SDS011;3627;46.544;14.944;2022-10-16T11:52:01;10.35;;;6.90;;
7171;SDS011;3627;46.544;14.944;2022-10-16T11:54:32;10.48;;;6.07;;
7171;SDS011;3627;46.544;14.944;2022-10-16T11:57:02;9.73;;;6.20;;
7171;SDS011;3627;46.544;14.944;2022-10-16T11:59:34;8.27;;;6.40;;
7171;SDS011;3627;46.544;14.944;2022-10-16T12:02:07;8.88;;;6.18;;
7171;SDS011;3627;46.544;14.944;2022-10-16T12:04:41;10.52;;;6.85;;
7171;SDS011;3627;46.544;14.944;2022-10-16T12:07:11;13.43;;;8.02;;
7171;SDS011;3627;46.544;14.944;2022-10-16T12:09:39;10.13;;;6.38;;
7171;SDS011;3627;46.544;14.944;2022-10-16T12:14:47;10.32;;;6.80;;
7171;SDS011;3627;46.544;14.944;2022-10-16T12:17:24;9.55;;;5.60;;
7171;SDS011;3627;46.544;14.944;2022-10-16T12:20:00;10.00;;;6.40;;
7171;SDS011;3627;46.544;14.944;2022-10-16T12:22:27;12.25;;;6.93;;
7171;SDS011;3627;46.544;14.944;2022-10-16T12:24:54;10.32;;;6.57;;
7171;SDS011;3627;46.544;14.944;2022-10-16T12:27:22;10.73;;;6.57;;
7171;SDS011;3627;46.544;14.944;2022-10-16T12:29:53;11.32;;;7.10;;
7171;SDS011;3627;46.544;14.944;2022-10-16T12:32:23;8.45;;;6.03;;
7171;SDS011;3627;46.544;14.944;2022-10-16T12:34:51;9.52;;;6.18;;
7171;SDS011;3627;46.544;14.944;2022-10-16T12:37:20;10.02;;;6.75;;
7171;SDS011;3627;46.544;14.944;2022-10-16T12:39:47;10.13;;;6.93;;
7171;SDS011;3627;46.544;14.944;2022-10-16T12:42:21;8.27;;;6.47;;
7171;SDS011;3627;46.544;14.944;2022-10-16T12:44:48;10.02;;;6.45;;
7171;SDS011;3627;46.544;14.944;2022-10-16T12:47:22;8.10;;;5.57;;
7171;SDS011;3627;46.544;14.944;2022-10-16T12:49:49;9.80;;;6.43;;
7171;SDS011;3627;46.544;14.944;2022-10-16T12:52:27;10.10;;;6.30;;
7171;SDS011;3627;46.544;14.944;2022-10-16T12:54:55;11.02;;;6.65;;
7171;SDS011;3627;46.544;14.944;2022-10-16T12:57:30;10.30;;;6.28;;
7171;SDS011;3627;46.544;14.944;2022-10-16T13:00:02;10.77;;;6.50;;
7171;SDS011;3627;46.544;14.944;2022-10-16T13:02:55;8.77;;;6.13;;
7171;SDS011;3627;46.544;14.944;2022-10-16T13:05:31;8.48;;;5.82;;
7171;SDS011;3627;46.544;14.944;2022-10-16T13:08:04;10.90;;;6.10;;
7171;SDS011;3627;46.544;14.944;2022-10-16T13:10:36;10.93;;;6.68;;
7171;SDS011;3627;46.544;14.944;2022-10-16T13:13:10;8.55;;;5.90;;
7171;SDS011;3627;46.544;14.944;2022-10-16T13:18:25;11.68;;;6.95;;
7171;SDS011;3627;46.544;14.944;2022-10-16T13:20:56;8.82;;;6.75;;
7171;SDS011;3627;46.544;14.944;2022-10-16T13:23:28;8.55;;;6.07;;
7171;SDS011;3627;46.544;14.944;2022-10-16T13:26:00;10.00;;;6.70;;
7171;SDS011;3627;46.544;14.944;2022-10-16T13:28:32;9.85;;;6.32;;
7171;SDS011;3627;46.544;14.944;2022-10-16T13:31:00;7.10;;;5.18;;
7171;SDS011;3627;46.544;14.944;2022-10-16T13:33:29;12.50;;;6.47;;
7171;SDS011;3627;46.544;14.944;2022-10-16T13:35:56;8.95;;;6.20;;
7171;SDS011;3627;46.544;14.944;2022-10-16T13:38:24;7.45;;;5.50;;
7171;SDS011;3627;46.544;14.944;2022-10-16T13:40:54;9.77;;;6.93;;
7171;SDS011;3627;46.544;14.944;2022-10-16T13:43:22;11.75;;;7.47;;
7171;SDS011;3627;46.544;14.944;2022-10-16T13:45:53;10.32;;;6.85;;
7171;SDS011;3627;46.544;14.944;2022-10-16T13:48:19;12.60;;;7.05;;
7171;SDS011;3627;46.544;14.944;2022-10-16T13:50:46;9.98;;;7.35;;
7171;SDS011;3627;46.544;14.944;2022-10-16T13:53:13;10.55;;;7.22;;
7171;SDS011;3627;46.544;14.944;2022-10-16T13:55:39;8.98;;;6.72;;
7171;SDS011;3627;46.544;14.944;2022-10-16T13:58:10;12.48;;;7.40;;
7171;SDS011;3627;46.544;14.944;2022-10-16T14:00:38;12.48;;;7.85;;
7171;SDS011;3627;46.544;14.944;2022-10-16T14:03:05;11.65;;;7.78;;
7171;SDS011;3627;46.544;14.944;2022-10-16T14:05:32;9.70;;;7.13;;
7171;SDS011;3627;46.544;14.944;2022-10-16T14:07:59;12.18;;;7.68;;
7171;SDS011;3627;46.544;14.944;2022-10-16T14:10:26;11.57;;;7.00;;
7171;SDS011;3627;46.544;14.944;2022-10-16T14:12:54;10.88;;;7.60;;
7171;SDS011;3627;46.544;14.944;2022-10-16T14:15:22;13.80;;;7.88;;
7171;SDS011;3627;46.544;14.944;2022-10-16T14:17:50;12.90;;;7.60;;
7171;SDS011;3627;46.544;14.944;2022-10-16T14:20:17;11.23;;;7.10;;
7171;SDS011;3627;46.544;14.944;2022-10-16T14:22:43;12.80;;;7.30;;
7171;SDS011;3627;46.544;14.944;2022-10-16T14:25:20;14.10;;;8.35;;
7171;SDS011;3627;46.544;14.944;2022-10-16T14:27:55;10.35;;;7.15;;
7171;SDS011;3627;46.544;14.944;2022-10-16T14:30:23;13.27;;;8.10;;
7171;SDS011;3627;46.544;14.944;2022-10-16T14:32:54;10.50;;;6.97;;
7171;SDS011;3627;46.544;14.944;2022-10-16T14:35:24;10.52;;;6.55;;
7171;SDS011;3627;46.544;14.944;2022-10-16T14:37:51;13.25;;;7.30;;
7171;SDS011;3627;46.544;14.944;2022-10-16T14:40:17;13.98;;;7.85;;
7171;SDS011;3627;46.544;14.944;2022-10-16T14:42:44;13.77;;;7.55;;
7171;SDS011;3627;46.544;14.944;2022-10-16T14:45:11;15.73;;;8.55;;
7171;SDS011;3627;46.544;14.944;2022-10-16T14:47:46;14.45;;;7.85;;
7171;SDS011;3627;46.544;14.944;2022-10-16T14:50:14;16.88;;;8.75;;
7171;SDS011;3627;46.544;14.944;2022-10-16T14:52:40;17.38;;;9.45;;
7171;SDS011;3627;46.544;14.944;2022-10-16T14:55:08;14.95;;;8.13;;
7171;SDS011;3627;46.544;14.944;2022-10-16T14:57:35;14.52;;;9.35;;